Terminal Aerodrome Forecast
Issued by NWS Cleveland, OH

Home | Current Version | Previous Version | Text Only | Print | Product List | Glossary On
Versions: 1 2 3 4 5 6 7 8 9 10 11 12 13 14 15 16 17
000
FTUS41 KCLE 072340
TAFCAK
TAF
KCAK 072340Z 0800/0824 28008KT P6SM VCTS BKN035CB OVC100
      TEMPO 0800/0802 3SM -RA BR BKN015 BKN020
     FM080300 32008KT 4SM BR SCT007 OVC025
     FM081800 04005KT P6SM VCSH OVC050=

USA.gov is the U.S. government's official web portal to all federal, state and local government web resources and services.